Time;durP1;ratioP1;P1;durP2;ratioP2;P2;SDS_P1;SDS_P2;PMS_P1;PMS_P2;Temp;Humidity;BMP_temperature;BMP_pressure;BME280_temperature;BME280_humidity;BME280_pressure;Samples;Min_cycle;Max_cycle;Signal;HPM_P1;HPM_P2
2022/08/28 00:00:11;;;;;;;9.13;5.47;;;;;;;18.12;75.75;94452.50;5141257;27;20205;-69
2022/08/28 00:02:38;;;;;;;8.80;5.22;;;;;;;18.06;75.42;94456.75;5147097;27;20550;-71
2022/08/28 00:05:06;;;;;;;8.63;5.35;;;;;;;18.06;75.15;94459.50;5146483;27;20608;-70
2022/08/28 00:07:33;;;;;;;9.25;4.90;;;;;;;18.07;75.16;94464.59;5133294;27;20714;-70
2022/08/28 00:10:01;;;;;;;7.80;4.63;;;;;;;18.08;74.81;94457.16;5133124;27;20209;-71
2022/08/28 00:12:30;;;;;;;7.70;4.80;;;;;;;18.13;74.80;94465.03;5132289;27;20240;-70
2022/08/28 00:14:57;;;;;;;6.97;4.70;;;;;;;18.16;75.12;94456.06;5132337;27;20676;-70
2022/08/28 00:17:24;;;;;;;8.88;4.85;;;;;;;18.22;75.42;94457.28;5132920;27;20197;-70
2022/08/28 00:19:51;;;;;;;10.00;5.00;;;;;;;18.25;74.72;94456.53;5132796;27;20281;-71
2022/08/28 00:22:18;;;;;;;9.52;5.10;;;;;;;18.23;74.46;94464.34;5132829;27;20694;-70
2022/08/28 00:24:44;;;;;;;11.48;4.68;;;;;;;18.10;75.18;94466.59;5132770;27;20197;-71
2022/08/28 00:29:58;;;;;;;13.07;4.93;;;;;;;18.03;75.84;94471.22;5132449;27;20207;-71
2022/08/28 00:32:25;;;;;;;12.43;5.05;;;;;;;18.06;75.81;94470.44;5132126;27;20636;-71
2022/08/28 00:34:53;;;;;;;10.88;5.13;;;;;;;17.94;76.89;94468.00;5136882;27;20196;-68
2022/08/28 00:37:20;;;;;;;9.48;4.80;;;;;;;17.84;76.99;94465.97;5141153;27;20641;-70
2022/08/28 00:39:46;;;;;;;13.13;5.45;;;;;;;17.90;76.58;94467.19;5146276;27;20262;-71
2022/08/28 00:42:13;;;;;;;5.75;4.78;;;;;;;17.88;76.81;94464.84;5143845;27;20239;-70
2022/08/28 00:44:40;;;;;;;10.43;5.32;;;;;;;17.85;76.70;94464.78;5139019;27;20208;-70
2022/08/28 00:47:08;;;;;;;8.75;4.60;;;;;;;17.86;76.30;94469.91;5152403;27;20233;-71
2022/08/28 00:49:40;;;;;;;9.88;4.50;;;;;;;17.86;75.91;94474.59;5138449;27;20618;-70
2022/08/28 00:52:11;;;;;;;15.48;5.60;;;;;;;17.84;75.70;94479.66;5139972;27;20716;-70
2022/08/28 00:54:42;;;;;;;9.20;5.32;;;;;;;17.83;75.51;94472.59;5145411;27;20262;-71
2022/08/28 00:57:14;;;;;;;9.70;5.30;;;;;;;17.77;75.52;94469.41;5132141;27;20208;-71
2022/08/28 00:59:41;;;;;;;8.50;4.88;;;;;;;17.80;75.64;94462.38;5144171;27;20193;-71
2022/08/28 01:02:10;;;;;;;8.82;4.35;;;;;;;17.63;75.99;94475.53;5145328;27;20742;-71
2022/08/28 01:04:37;;;;;;;10.38;5.57;;;;;;;17.52;77.35;94471.06;5140764;27;20222;-71
2022/08/28 01:07:07;;;;;;;9.07;5.45;;;;;;;17.48;77.56;94476.53;5138442;27;20255;-71
2022/08/28 01:09:37;;;;;;;9.60;5.47;;;;;;;17.44;77.97;94464.75;5143533;27;20205;-73
2022/08/28 01:12:09;;;;;;;7.72;4.95;;;;;;;17.48;77.79;94468.31;5145445;27;20612;-71
2022/08/28 01:14:39;;;;;;;6.72;5.18;;;;;;;17.50;77.60;94470.66;5137330;27;20200;-71
2022/08/28 01:17:08;;;;;;;8.63;5.18;;;;;;;17.44;77.50;94472.19;5131732;27;20204;-71
2022/08/28 01:19:42;;;;;;;10.55;5.80;;;;;;;17.12;78.87;94469.06;5145063;27;20212;-70
2022/08/28 01:22:18;;;;;;;6.45;4.78;;;;;;;17.24;78.40;94475.06;5138498;27;20212;-72
2022/08/28 01:24:48;;;;;;;11.48;4.90;;;;;;;17.17;78.62;94474.22;5138552;27;20192;-70
2022/08/28 01:27:16;;;;;;;10.70;5.68;;;;;;;17.19;78.63;94471.91;5143719;27;20250;-69
2022/08/28 01:29:43;;;;;;;6.07;4.72;;;;;;;17.30;77.94;94478.28;5145436;27;20242;-69
2022/08/28 01:32:10;;;;;;;7.97;4.97;;;;;;;17.36;77.50;94471.28;5131419;27;20272;-70
2022/08/28 01:34:37;;;;;;;7.53;4.85;;;;;;;17.27;77.50;94465.31;5145188;27;20696;-71
2022/08/28 01:37:04;;;;;;;13.30;5.20;;;;;;;17.31;77.52;94479.84;5141410;27;20204;-70
2022/08/28 01:39:31;;;;;;;18.98;5.05;;;;;;;17.26;77.53;94477.44;5138135;27;20614;-71
2022/08/28 01:41:59;;;;;;;9.90;4.38;;;;;;;17.38;77.13;94479.94;5141504;27;20232;-71
2022/08/28 01:44:27;;;;;;;14.10;5.20;;;;;;;17.43;76.83;94474.13;5144885;27;20200;-71
2022/08/28 01:46:57;;;;;;;7.88;5.43;;;;;;;17.43;77.54;94487.81;5141386;27;20252;-70
2022/08/28 01:49:28;;;;;;;6.93;4.65;;;;;;;17.35;78.02;94475.22;5132578;27;20201;-70
2022/08/28 01:51:55;;;;;;;7.60;5.05;;;;;;;17.35;78.19;94483.44;5143314;27;20196;-70
2022/08/28 01:54:22;;;;;;;11.18;5.28;;;;;;;17.32;78.24;94473.22;5137699;27;20284;-70
2022/08/28 01:56:49;;;;;;;7.13;4.85;;;;;;;17.22;78.89;94477.38;5139332;27;20723;-70
2022/08/28 01:59:18;;;;;;;8.57;5.22;;;;;;;17.16;79.06;94473.44;5145175;27;20201;-69
2022/08/28 02:01:45;;;;;;;11.10;5.88;;;;;;;17.15;79.01;94473.78;5143788;27;20766;-70
2022/08/28 02:04:12;;;;;;;12.40;4.93;;;;;;;17.13;79.06;94476.13;5138059;27;20196;-70
2022/08/28 02:06:40;;;;;;;10.38;5.80;;;;;;;17.18;78.79;94481.28;5137963;27;20254;-70
2022/08/28 02:09:07;;;;;;;8.63;5.00;;;;;;;17.16;78.87;94478.91;5138001;27;20211;-71
2022/08/28 02:11:35;;;;;;;7.45;5.18;;;;;;;17.12;79.13;94478.06;5137577;27;20230;-71
2022/08/28 02:14:02;;;;;;;9.25;4.72;;;;;;;17.13;79.06;94476.13;5147846;27;20184;-71
2022/08/28 02:16:31;;;;;;;7.60;5.10;;;;;;;17.11;79.35;94481.16;5137639;27;20201;-71
2022/08/28 02:18:58;;;;;;;7.57;4.97;;;;;;;17.05;79.36;94478.78;5138998;27;20200;-71
2022/08/28 02:21:25;;;;;;;10.20;4.93;;;;;;;17.15;79.09;94479.28;5136948;27;20243;-71
2022/08/28 02:23:52;;;;;;;14.30;5.53;;;;;;;17.11;79.50;94478.44;5143698;27;20299;-71
2022/08/28 02:26:20;;;;;;;9.93;6.38;;;;;;;17.11;79.83;94476.47;5144790;27;20200;-71
2022/08/28 02:28:47;;;;;;;9.40;5.05;;;;;;;17.17;80.03;94479.69;5139104;27;20200;-71
2022/08/28 02:31:14;;;;;;;9.23;5.40;;;;;;;17.09;80.75;94472.53;5137512;27;20213;-71
2022/08/28 02:33:44;;;;;;;12.38;6.40;;;;;;;17.04;80.81;94470.94;5142724;27;20207;-71
2022/08/28 02:36:13;;;;;;;9.32;5.90;;;;;;;17.07;80.62;94480.34;5144773;27;20197;-71
2022/08/28 02:38:40;;;;;;;10.75;5.43;;;;;;;17.08;80.39;94480.00;5141235;27;20200;-70
2022/08/28 02:41:08;;;;;;;9.68;5.38;;;;;;;17.09;80.15;94488.97;5137032;27;20220;-71
2022/08/28 02:43:35;;;;;;;9.73;5.05;;;;;;;17.08;80.13;94476.47;5141032;27;20273;-71
2022/08/28 02:46:02;;;;;;;9.70;5.05;;;;;;;17.09;80.43;94484.28;5147231;27;20213;-71
2022/08/28 02:48:30;;;;;;;9.18;5.05;;;;;;;17.00;80.49;94484.56;5140714;27;20197;-71
2022/08/28 02:51:01;;;;;;;11.93;5.35;;;;;;;17.05;80.09;94489.72;5135180;27;20597;-71
2022/08/28 02:53:29;;;;;;;10.82;5.07;;;;;;;16.98;80.19;94475.94;5139678;27;20232;-71
2022/08/28 02:55:57;;;;;;;11.93;5.05;;;;;;;17.03;80.22;94494.78;5144348;27;20261;-71
2022/08/28 02:58:25;;;;;;;10.80;5.88;;;;;;;16.97;80.38;94493.50;5142612;27;20260;-71
2022/08/28 03:00:52;;;;;;;10.75;5.10;;;;;;;16.88;80.22;94495.75;5138096;27;20204;-71
2022/08/28 03:03:20;;;;;;;8.55;5.32;;;;;;;16.83;80.77;94498.78;5142661;27;20233;-71
2022/08/28 03:05:47;;;;;;;9.40;5.18;;;;;;;16.80;81.14;94494.09;5147937;27;20276;-71
2022/08/28 03:08:15;;;;;;;14.18;5.82;;;;;;;16.80;80.77;94493.28;5147162;27;20204;-71
2022/08/28 03:10:42;;;;;;;12.13;5.53;;;;;;;16.82;80.69;94490.94;5141003;27;20212;-71
2022/08/28 03:13:10;;;;;;;8.18;5.20;;;;;;;16.77;80.70;94489.34;5144602;27;20228;-71
2022/08/28 03:15:37;;;;;;;12.95;5.85;;;;;;;16.74;80.89;94495.56;5134125;27;20196;-71
2022/08/28 03:18:04;;;;;;;8.80;5.63;;;;;;;16.72;81.06;94497.06;5133444;27;20207;-71
2022/08/28 03:20:30;;;;;;;12.30;5.13;;;;;;;16.57;81.64;94501.50;5147128;27;20269;-71
2022/08/28 03:25:58;;;;;;;8.10;5.45;;;;;;;16.56;81.80;94489.00;5081785;28;20826;-71
2022/08/28 03:28:25;;;;;;;8.55;5.38;;;;;;;16.63;81.78;94491.88;5129563;27;20666;-71
2022/08/28 03:30:52;;;;;;;10.10;4.95;;;;;;;16.60;82.08;94485.16;5141458;27;20201;-71
2022/08/28 03:33:20;;;;;;;8.43;5.30;;;;;;;16.64;81.99;94490.72;5147562;27;20229;-71
2022/08/28 03:35:47;;;;;;;8.40;5.18;;;;;;;16.69;81.82;94493.13;5147521;27;20227;-70
2022/08/28 03:38:15;;;;;;;12.57;5.75;;;;;;;16.65;82.03;94503.25;5140375;27;20603;-70
2022/08/28 03:40:45;;;;;;;8.50;5.30;;;;;;;16.62;83.04;94498.47;5140432;27;20225;-70
2022/08/28 03:43:16;;;;;;;7.65;5.30;;;;;;;16.59;83.39;94510.16;5140497;27;20216;-70
2022/08/28 03:45:52;;;;;;;8.82;5.40;;;;;;;16.64;83.62;94501.66;5139227;27;20196;-70
2022/08/28 03:48:19;;;;;;;15.45;6.00;;;;;;;16.62;84.19;94514.88;5133012;27;20285;-70
2022/08/28 03:50:47;;;;;;;7.60;5.53;;;;;;;16.62;84.01;94514.88;5133196;27;20224;-70
2022/08/28 03:53:13;;;;;;;9.35;5.22;;;;;;;16.66;83.95;94513.03;5132939;27;20235;-70
2022/08/28 03:55:41;;;;;;;10.52;6.28;;;;;;;16.79;83.11;94525.34;5133113;27;20220;-72
2022/08/28 03:58:08;;;;;;;13.23;5.85;;;;;;;16.97;82.31;94518.13;5133173;27;20293;-70
2022/08/28 04:00:36;;;;;;;10.43;5.45;;;;;;;17.05;81.86;94517.09;5133116;27;20279;-70
2022/08/28 04:03:03;;;;;;;8.57;5.05;;;;;;;17.27;80.60;94522.81;5133141;27;20285;-70
2022/08/28 04:05:30;;;;;;;14.77;5.47;;;;;;;17.47;80.08;94523.47;5132747;27;20207;-70
2022/08/28 04:07:57;;;;;;;12.25;5.57;;;;;;;17.82;79.22;94525.81;5143186;27;20241;-70
2022/08/28 04:10:24;;;;;;;13.25;6.13;;;;;;;18.16;77.70;94532.84;5136789;27;20208;-71
2022/08/28 04:12:52;;;;;;;9.38;5.22;;;;;;;18.68;75.88;94519.94;5140678;27;20280;-70
2022/08/28 04:15:20;;;;;;;9.38;5.53;;;;;;;19.00;73.90;94523.66;5146871;27;20254;-69
2022/08/28 04:17:48;;;;;;;9.45;5.47;;;;;;;19.61;71.83;94519.28;5144078;27;20687;-69
2022/08/28 04:20:15;;;;;;;9.77;4.93;;;;;;;19.88;70.15;94517.78;5134540;27;20223;-71
2022/08/28 04:22:42;;;;;;;12.40;6.85;;;;;;;19.72;69.94;94525.59;5144442;27;20268;-72
2022/08/28 04:25:09;;;;;;;9.40;6.57;;;;;;;20.39;67.83;94537.91;5139204;27;20204;-71
2022/08/28 04:27:36;;;;;;;11.45;6.50;;;;;;;20.79;67.00;94532.00;5141126;27;20200;-71
2022/08/28 04:30:03;;;;;;;8.82;6.53;;;;;;;21.92;63.65;94530.13;5146211;27;20592;-71
2022/08/28 04:32:30;;;;;;;7.53;4.90;;;;;;;22.52;60.67;94532.53;5144861;27;20200;-70
2022/08/28 04:34:58;;;;;;;8.43;4.50;;;;;;;23.23;58.95;94522.84;5138900;27;20658;-70
2022/08/28 04:37:25;;;;;;;11.65;6.53;;;;;;;23.79;57.14;94532.47;5140086;27;20200;-70
2022/08/28 04:39:52;;;;;;;12.55;5.75;;;;;;;24.08;56.06;94533.66;5146263;27;20220;-70
2022/08/28 04:42:19;;;;;;;8.70;6.07;;;;;;;24.76;54.10;94533.47;5146184;27;20379;-70
2022/08/28 04:44:46;;;;;;;12.77;7.15;;;;;;;25.36;53.01;94528.88;5131981;27;20250;-70
2022/08/28 04:47:13;;;;;;;8.50;4.82;;;;;;;25.32;52.40;94530.16;5132885;27;20667;-70
2022/08/28 04:49:40;;;;;;;17.52;6.85;;;;;;;26.12;50.11;94526.97;5138837;27;20192;-70
2022/08/28 04:52:09;;;;;;;8.68;4.85;;;;;;;26.69;49.53;94525.69;5138746;27;20209;-70
2022/08/28 04:54:36;;;;;;;10.23;6.18;;;;;;;26.88;48.87;94533.16;5145119;27;20710;-70
2022/08/28 04:57:03;;;;;;;14.18;5.80;;;;;;;26.82;48.19;94534.13;5145812;27;20204;-71
2022/08/28 04:59:29;;;;;;;13.63;6.65;;;;;;;27.37;47.19;94535.91;5139807;27;20210;-70
2022/08/28 05:01:56;;;;;;;10.45;6.40;;;;;;;27.87;46.88;94529.00;5138848;27;20204;-69
2022/08/28 05:04:24;;;;;;;12.80;6.93;;;;;;;27.98;45.41;94529.47;5144322;27;20662;-70
2022/08/28 05:06:50;;;;;;;10.02;5.85;;;;;;;28.39;45.15;94525.13;5145432;27;20196;-71
2022/08/28 05:09:20;;;;;;;8.30;6.05;;;;;;;29.04;43.85;94524.66;5140447;27;20225;-70
2022/08/28 05:11:49;;;;;;;11.07;7.10;;;;;;;28.86;42.97;94526.00;5138482;27;20263;-70
2022/08/28 05:14:16;;;;;;;11.35;6.25;;;;;;;28.36;43.88;94537.16;5148481;27;20833;-71
2022/08/28 05:16:45;;;;;;;14.13;7.13;;;;;;;28.99;42.69;94531.56;5135857;27;20609;-70
2022/08/28 05:19:12;;;;;;;13.52;6.85;;;;;;;29.55;41.60;94542.84;5140851;27;20732;-70
2022/08/28 05:21:41;;;;;;;12.40;7.10;;;;;;;28.88;42.92;94540.28;5137973;27;20208;-71
2022/08/28 05:24:09;;;;;;;12.75;7.40;;;;;;;27.69;45.11;94548.22;5141995;27;20732;-69
2022/08/28 05:26:38;;;;;;;11.27;7.38;;;;;;;27.88;45.76;94547.28;5144608;27;20261;-69
2022/08/28 05:29:06;;;;;;;15.50;6.80;;;;;;;27.92;44.87;94547.94;5131640;27;20291;-70
2022/08/28 05:31:34;;;;;;;10.45;6.90;;;;;;;28.35;44.70;94546.72;5145663;27;20283;-70
2022/08/28 05:34:03;;;;;;;14.75;6.90;;;;;;;28.93;43.16;94548.09;5131219;27;20245;-70
2022/08/28 05:36:32;;;;;;;11.13;6.97;;;;;;;29.45;41.84;94541.22;5135953;27;20261;-71
2022/08/28 05:38:59;;;;;;;11.88;7.18;;;;;;;29.72;41.14;94548.25;5140493;27;20236;-70
2022/08/28 05:41:29;;;;;;;12.88;7.15;;;;;;;29.31;41.69;94555.63;5144890;27;20228;-70
2022/08/28 05:44:00;;;;;;;16.30;7.13;;;;;;;29.84;40.01;94553.78;5143992;27;20224;-70
2022/08/28 05:46:27;;;;;;;11.73;7.10;;;;;;;30.31;39.80;94559.25;5130878;27;20186;-70
2022/08/28 05:48:54;;;;;;;19.77;7.95;;;;;;;30.05;39.83;94552.28;5144684;27;20202;-70
2022/08/28 05:51:23;;;;;;;15.73;7.15;;;;;;;30.58;39.00;94549.47;5136899;27;20200;-71
2022/08/28 05:53:50;;;;;;;12.00;7.43;;;;;;;30.97;38.61;94559.13;5137820;27;20262;-70
2022/08/28 05:56:19;;;;;;;12.48;7.13;;;;;;;31.95;36.69;94552.63;5137961;27;20256;-70
2022/08/28 05:58:46;;;;;;;10.95;7.38;;;;;;;32.14;36.17;94554.91;5137818;27;20556;-70
2022/08/28 06:01:17;;;;;;;10.52;7.00;;;;;;;31.39;37.20;94554.59;5144533;27;20739;-70
2022/08/28 06:03:46;;;;;;;14.65;7.65;;;;;;;31.67;37.19;94555.44;5145304;27;20618;-71
2022/08/28 06:06:13;;;;;;;13.23;7.40;;;;;;;31.54;36.99;94557.56;5139359;27;20284;-70
2022/08/28 06:08:40;;;;;;;12.65;7.13;;;;;;;31.28;37.25;94561.88;5137870;27;20621;-71
2022/08/28 06:11:07;;;;;;;15.70;7.47;;;;;;;31.55;37.18;94559.13;5143262;27;20200;-70
2022/08/28 06:13:35;;;;;;;10.35;7.18;;;;;;;32.83;34.97;94553.38;5140834;27;20232;-70
2022/08/28 06:16:02;;;;;;;15.95;7.28;;;;;;;32.76;34.92;94553.75;5142956;27;20277;-70
2022/08/28 06:18:31;;;;;;;15.93;7.10;;;;;;;33.02;34.64;94554.88;5144845;27;20200;-70
2022/08/28 06:21:01;;;;;;;15.05;7.57;;;;;;;34.10;33.13;94551.06;5131118;28;20213;-70
2022/08/28 06:23:28;;;;;;;15.27;7.90;;;;;;;32.17;35.87;94563.66;5144631;27;20626;-70
2022/08/28 06:25:57;;;;;;;12.90;7.93;;;;;;;32.09;35.82;94554.78;5131533;28;20670;-70
2022/08/28 06:28:25;;;;;;;17.52;7.65;;;;;;;32.40;35.52;94555.38;5144753;27;20227;-70
2022/08/28 06:30:54;;;;;;;14.95;8.13;;;;;;;32.40;35.01;94558.16;5143565;27;20204;-71
2022/08/28 06:33:21;;;;;;;12.93;7.40;;;;;;;33.65;34.66;94552.94;5137120;27;20714;-71
2022/08/28 06:35:51;;;;;;;14.35;7.60;;;;;;;33.75;34.02;94551.66;5139484;27;20212;-70
2022/08/28 06:38:20;;;;;;;8.50;6.93;;;;;;;32.29;35.98;94551.50;5149338;27;20262;-70
2022/08/28 06:40:48;;;;;;;11.02;7.15;;;;;;;32.36;35.02;94554.00;5148843;27;20286;-70
2022/08/28 06:43:17;;;;;;;13.40;7.80;;;;;;;33.26;34.53;94560.53;5148428;27;20727;-70
2022/08/28 06:45:46;;;;;;;10.32;7.22;;;;;;;32.30;35.17;94573.47;5135351;27;20208;-70
2022/08/28 06:48:15;;;;;;;11.93;8.10;;;;;;;32.58;35.42;94559.38;5141729;27;20196;-70
2022/08/28 06:50:44;;;;;;;15.13;7.47;;;;;;;32.46;35.42;94564.72;5141584;27;20288;-71
2022/08/28 06:53:14;;;;;;;12.45;6.80;;;;;;;32.52;34.54;94562.06;5146662;27;20204;-70
2022/08/28 06:55:41;;;;;;;11.00;6.70;;;;;;;32.22;35.51;94572.25;5148657;27;20220;-70
2022/08/28 06:58:10;;;;;;;12.38;6.88;;;;;;;31.90;35.66;94572.84;5142741;27;20197;-73
2022/08/28 07:00:37;;;;;;;16.15;7.15;;;;;;;31.93;36.00;94571.94;5140547;27;20249;-71
2022/08/28 07:03:05;;;;;;;12.45;7.00;;;;;;;32.75;34.32;94557.81;5145331;27;20220;-72
2022/08/28 07:05:33;;;;;;;11.90;6.70;;;;;;;33.23;33.98;94569.09;5148085;27;20287;-69
2022/08/28 07:08:00;;;;;;;9.10;5.68;;;;;;;33.48;33.96;94557.47;5144035;27;20196;-68
2022/08/28 07:10:30;;;;;;;11.85;6.32;;;;;;;32.86;34.22;94560.88;5146449;27;20201;-69
2022/08/28 07:12:59;;;;;;;12.13;7.60;;;;;;;32.35;34.87;94561.63;5142301;27;20709;-70
2022/08/28 07:15:26;;;;;;;12.38;6.28;;;;;;;32.62;35.20;94560.78;5143584;27;20916;-69
2022/08/28 07:17:52;;;;;;;15.45;6.70;;;;;;;31.39;36.38;94559.41;5137985;27;20201;-70
2022/08/28 07:20:19;;;;;;;9.15;6.15;;;;;;;31.83;36.32;94567.56;5141670;27;20551;-69
2022/08/28 07:22:46;;;;;;;13.75;6.32;;;;;;;30.96;38.26;94563.94;5139206;27;20208;-69
2022/08/28 07:25:13;;;;;;;13.80;6.38;;;;;;;30.71;38.24;94566.94;5141464;27;20612;-70
2022/08/28 07:27:41;;;;;;;13.02;6.40;;;;;;;30.67;38.54;94566.31;5132714;27;20205;-70
2022/08/28 07:30:11;;;;;;;11.38;5.72;;;;;;;30.77;38.04;94556.69;5147352;27;20209;-70
2022/08/28 07:32:38;;;;;;;11.82;6.28;;;;;;;30.53;39.14;94558.44;5146732;27;20654;-70
2022/08/28 07:35:06;;;;;;;13.35;6.03;;;;;;;31.37;37.89;94553.50;5140152;27;20204;-70
2022/08/28 07:37:32;;;;;;;12.20;6.07;;;;;;;30.59;38.26;94557.41;5142434;27;20604;-70
2022/08/28 07:39:59;;;;;;;13.23;5.45;;;;;;;30.85;37.80;94558.00;5146214;27;20220;-68
2022/08/28 07:45:12;;;;;;;10.10;5.75;;;;;;;29.97;40.01;94557.31;5141665;27;20261;-72
2022/08/28 07:47:38;;;;;;;11.55;5.68;;;;;;;29.46;41.35;94556.72;5136685;27;20270;-69
2022/08/28 07:50:06;;;;;;;13.18;5.65;;;;;;;29.12;40.98;94559.44;5145241;27;20607;-71
2022/08/28 07:52:32;;;;;;;15.13;5.93;;;;;;;29.14;41.29;94552.19;5142813;27;20189;-72
2022/08/28 07:54:59;;;;;;;13.95;6.38;;;;;;;28.63;41.40;94557.00;5141258;27;20273;-70
2022/08/28 07:57:26;;;;;;;13.90;6.45;;;;;;;28.19;42.35;94553.94;5140664;27;20189;-72
2022/08/28 07:59:53;;;;;;;9.10;5.15;;;;;;;28.84;42.99;94553.56;5141998;27;20379;-72
2022/08/28 08:02:21;;;;;;;12.02;5.15;;;;;;;29.50;39.40;94551.81;5143460;27;20189;-72
2022/08/28 08:04:48;;;;;;;10.20;5.40;;;;;;;29.38;38.76;94544.25;5143344;27;20233;-72
2022/08/28 08:07:16;;;;;;;11.20;5.00;;;;;;;30.26;40.00;94548.66;5141720;27;20278;-71
2022/08/28 08:09:45;;;;;;;8.32;5.32;;;;;;;29.96;41.14;94543.78;5138163;27;20221;-70
2022/08/28 08:12:14;;;;;;;9.52;5.55;;;;;;;29.61;39.00;94545.84;5141615;27;20223;-70
2022/08/28 08:14:42;;;;;;;17.58;5.75;;;;;;;29.30;38.97;94554.06;5139730;27;20196;-71
2022/08/28 08:17:10;;;;;;;14.43;5.28;;;;;;;29.11;39.79;94546.75;5139839;27;20197;-71
2022/08/28 08:19:39;;;;;;;11.93;5.28;;;;;;;29.32;40.00;94551.59;5142960;27;20208;-70
2022/08/28 08:22:06;;;;;;;9.90;5.18;;;;;;;28.98;41.52;94553.09;5139002;27;20193;-72
2022/08/28 08:24:34;;;;;;;13.35;5.57;;;;;;;29.39;38.87;94545.00;5142296;27;20258;-71
2022/08/28 08:27:02;;;;;;;9.93;5.40;;;;;;;29.43;40.10;94549.25;5137056;27;20197;-70
2022/08/28 08:29:32;;;;;;;15.13;6.97;;;;;;;29.14;42.79;94551.41;5138432;27;20256;-70
2022/08/28 08:32:03;;;;;;;14.63;6.78;;;;;;;29.36;41.46;94546.69;5132695;27;20205;-70
2022/08/28 08:34:30;;;;;;;18.02;6.55;;;;;;;28.51;42.84;94549.44;5138085;27;20184;-72
2022/08/28 08:36:59;;;;;;;11.25;6.57;;;;;;;28.95;42.74;94545.66;5146372;27;20208;-69
2022/08/28 08:39:25;;;;;;;17.75;6.80;;;;;;;28.53;43.25;94544.19;5140634;27;20213;-69
2022/08/28 08:41:57;;;;;;;11.82;5.68;;;;;;;28.87;41.24;94538.72;5140655;27;20204;-70
2022/08/28 08:44:27;;;;;;;8.10;5.68;;;;;;;29.02;40.49;94538.25;5140602;27;20724;-69
2022/08/28 08:47:04;;;;;;;10.90;5.88;;;;;;;28.87;40.29;94544.31;5140392;27;20241;-71
2022/08/28 08:49:36;;;;;;;11.27;5.72;;;;;;;28.93;41.11;94548.09;5139880;27;20642;-71
2022/08/28 08:52:24;;;;;;;8.27;5.30;;;;;;;29.11;40.70;94541.16;5139100;27;20265;-70
2022/08/28 08:55:04;;;;;;;12.65;5.32;;;;;;;29.68;39.30;94540.00;5141906;27;20213;-70
2022/08/28 08:57:33;;;;;;;11.85;5.55;;;;;;;29.77;39.88;94550.47;5143898;27;20550;-70
2022/08/28 09:00:01;;;;;;;13.10;5.63;;;;;;;29.93;38.33;94530.72;5143869;27;20224;-70
2022/08/28 09:02:33;;;;;;;10.00;6.15;;;;;;;30.29;38.12;94528.19;5142715;27;20249;-69
2022/08/28 09:05:06;;;;;;;12.13;6.10;;;;;;;30.42;38.94;94530.88;5139819;27;20205;-70
2022/08/28 09:07:41;;;;;;;13.02;5.80;;;;;;;30.18;38.37;94532.63;5131919;27;20201;-69
2022/08/28 09:10:12;;;;;;;11.38;5.75;;;;;;;30.36;38.16;94538.31;5136737;27;20234;-70
2022/08/28 09:12:53;;;;;;;11.43;7.18;;;;;;;30.30;38.86;94535.34;5136895;27;20659;-70
2022/08/28 09:15:27;;;;;;;11.55;6.45;;;;;;;30.14;38.63;94535.53;5142731;27;20189;-70
2022/08/28 09:17:57;;;;;;;10.98;5.80;;;;;;;30.26;38.46;94529.09;5135962;27;20177;-69
2022/08/28 09:20:27;;;;;;;11.55;5.57;;;;;;;30.25;37.50;94538.72;5137550;27;20212;-70
2022/08/28 09:22:56;;;;;;;14.38;5.75;;;;;;;30.60;37.33;94525.41;5138929;27;20200;-73
2022/08/28 09:25:52;;;;;;;17.02;6.10;;;;;;;31.12;36.41;94525.75;5137977;27;20322;-72
2022/08/28 09:28:22;;;;;;;18.33;6.20;;;;;;;30.12;38.11;94529.63;5139854;27;20185;-72
2022/08/28 09:30:59;;;;;;;18.20;6.82;;;;;;;29.98;38.19;94527.38;5141514;27;20643;-70
2022/08/28 09:33:38;;;;;;;12.35;5.50;;;;;;;30.10;37.73;94526.50;5139499;27;20184;-70
2022/08/28 09:36:38;;;;;;;15.13;6.45;;;;;;;30.37;37.96;94528.69;5141309;27;20241;-71
2022/08/28 09:39:11;;;;;;;11.75;6.07;;;;;;;30.70;37.91;94518.63;5056014;28;20301;-71
2022/08/28 09:44:28;;;;;;;11.18;6.22;;;;;;;30.56;37.43;94521.19;5108212;27;20681;-72
2022/08/28 09:46:54;;;;;;;11.30;4.68;;;;;;;30.31;36.55;94525.72;5139855;27;20587;-73
2022/08/28 09:49:27;;;;;;;9.32;5.50;;;;;;;30.14;37.26;94515.22;5134624;27;20197;-73
2022/08/28 09:51:55;;;;;;;14.43;6.03;;;;;;;30.61;37.37;94509.41;5131368;27;20551;-72
2022/08/28 09:54:31;;;;;;;14.13;5.45;;;;;;;31.13;36.83;94514.09;5139059;27;20637;-71
2022/08/28 09:56:59;;;;;;;13.85;5.97;;;;;;;31.43;36.94;94504.78;5139277;27;20192;-72
2022/08/28 09:59:28;;;;;;;14.98;5.63;;;;;;;31.46;36.54;94494.69;5139811;27;20200;-71
2022/08/28 10:02:14;;;;;;;15.43;6.35;;;;;;;31.56;36.59;94501.88;5140072;27;20198;-73
2022/08/28 10:04:54;;;;;;;12.15;6.13;;;;;;;31.69;36.40;94499.72;5137055;27;20205;-72
2022/08/28 10:07:30;;;;;;;17.05;5.28;;;;;;;32.07;35.54;94495.59;5136740;27;20674;-72
2022/08/28 10:10:13;;;;;;;11.65;5.50;;;;;;;31.43;35.14;94501.25;5138552;27;20635;-73
2022/08/28 10:12:47;;;;;;;12.60;5.90;;;;;;;31.24;36.30;94494.06;5146529;27;20216;-72
2022/08/28 10:15:22;;;;;;;15.65;5.45;;;;;;;30.82;37.34;94490.97;5142401;27;20246;-73
2022/08/28 10:18:08;;;;;;;17.83;6.28;;;;;;;30.98;36.34;94493.53;5145181;27;20638;-72
2022/08/28 10:20:47;;;;;;;10.90;5.60;;;;;;;31.22;36.12;94490.94;5145533;27;20180;-70
2022/08/28 10:23:26;;;;;;;15.68;6.07;;;;;;;31.01;35.28;94479.38;5142221;27;20564;-71
2022/08/28 10:26:01;;;;;;;14.70;6.00;;;;;;;30.64;36.36;94484.09;5140875;27;20201;-70
2022/08/28 10:28:43;;;;;;;18.23;6.00;;;;;;;30.83;36.26;94479.34;5133644;27;20188;-73
2022/08/28 10:31:19;;;;;;;9.80;5.53;;;;;;;31.02;36.92;94480.94;5135445;27;21005;-72
2022/08/28 10:34:05;;;;;;;10.70;5.47;;;;;;;30.87;35.43;94470.81;5143450;27;20181;-71
2022/08/28 10:36:34;;;;;;;13.88;5.57;;;;;;;31.18;36.36;94479.09;5143013;27;20208;-72
2022/08/28 10:39:13;;;;;;;9.80;5.78;;;;;;;30.99;33.80;94478.28;5143113;27;20262;-71
2022/08/28 10:41:46;;;;;;;7.70;5.50;;;;;;;31.45;32.25;94479.13;5139661;27;20242;-73
2022/08/28 10:44:21;;;;;;;14.90;6.05;;;;;;;31.20;33.61;94477.41;5142421;27;20735;-72
2022/08/28 10:46:52;;;;;;;13.25;5.72;;;;;;;31.27;34.83;94471.50;5140214;27;20196;-70
2022/08/28 10:49:25;;;;;;;13.30;5.70;;;;;;;31.73;34.21;94475.09;5142699;27;20192;-72
2022/08/28 10:51:55;;;;;;;12.77;6.10;;;;;;;32.07;33.05;94462.75;5137473;27;20293;-72
2022/08/28 10:54:29;;;;;;;13.63;6.20;;;;;;;31.61;33.89;94472.44;5141519;27;20192;-70
2022/08/28 10:57:05;;;;;;;12.70;5.60;;;;;;;31.41;34.15;94476.50;5144072;27;20264;-78
2022/08/28 10:59:34;;;;;;;16.48;5.43;;;;;;;30.92;33.68;94459.75;5141200;27;20584;-74
2022/08/28 11:02:05;;;;;;;9.68;6.10;;;;;;;30.84;33.60;94466.91;5141079;27;20234;-71
2022/08/28 11:04:32;;;;;;;9.52;5.43;;;;;;;31.25;33.28;94471.19;5133838;27;20805;-73
2022/08/28 11:07:05;;;;;;;7.90;5.13;;;;;;;31.55;32.55;94463.13;5147958;27;20208;-73
2022/08/28 11:09:36;;;;;;;8.90;5.20;;;;;;;31.19;31.42;94469.47;5144210;27;20591;-73
2022/08/28 11:12:09;;;;;;;13.10;6.05;;;;;;;31.26;32.50;94463.56;5140309;27;20277;-73
2022/08/28 11:14:38;;;;;;;13.68;5.28;;;;;;;31.34;32.45;94459.22;5138587;27;20208;-72
2022/08/28 11:17:08;;;;;;;12.95;5.65;;;;;;;31.79;32.65;94455.66;5147620;27;20189;-71
2022/08/28 11:20:03;;;;;;;11.48;5.35;;;;;;;32.35;31.79;94441.03;5145887;27;20615;-71
2022/08/28 11:22:34;;;;;;;10.02;5.60;;;;;;;32.24;31.76;94446.38;5135974;27;20532;-70
2022/08/28 11:25:11;;;;;;;9.00;5.18;;;;;;;31.95;31.43;94448.94;5147439;27;20604;-72
2022/08/28 11:27:40;;;;;;;11.88;5.65;;;;;;;31.83;31.20;94449.88;5146635;27;20639;-72
2022/08/28 11:30:32;;;;;;;7.20;5.50;;;;;;;32.04;31.80;94448.88;5138739;27;20346;-72
2022/08/28 11:33:09;;;;;;;8.68;5.57;;;;;;;31.82;32.56;94449.09;5140173;27;20253;-72
2022/08/28 11:35:48;;;;;;;10.52;5.03;;;;;;;32.07;30.10;94442.34;5145161;27;20222;-71
2022/08/28 11:38:52;;;;;;;13.50;5.50;;;;;;;32.04;31.41;94443.28;5144211;27;20221;-73
2022/08/28 11:41:23;;;;;;;11.43;5.28;;;;;;;31.75;31.37;94439.00;5128190;27;20245;-73
2022/08/28 11:44:07;;;;;;;11.25;5.43;;;;;;;31.83;30.34;94436.66;5140867;27;20241;-73
2022/08/28 11:46:39;;;;;;;9.88;6.70;;;;;;;32.01;31.03;94439.41;5140976;27;20718;-73
2022/08/28 11:49:43;;;;;;;11.40;5.93;;;;;;;31.67;32.15;94443.38;5139200;27;20200;-74